sensor_id;sensor_type;location;lat;lon;timestamp;temperature;humidity
69084;SHT31;56185;48.526;9.044;2023-07-08T00:01:13;23.43;43.27
69084;SHT31;56185;48.526;9.044;2023-07-08T00:03:39;23.26;43.97
69084;SHT31;56185;48.526;9.044;2023-07-08T00:06:15;23.12;43.76
69084;SHT31;56185;48.526;9.044;2023-07-08T00:08:41;23.04;44.02
69084;SHT31;56185;48.526;9.044;2023-07-08T00:11:11;22.95;44.90
69084;SHT31;56185;48.526;9.044;2023-07-08T00:13:36;22.88;45.11
69084;SHT31;56185;48.526;9.044;2023-07-08T00:16:02;22.88;45.29
69084;SHT31;56185;48.526;9.044;2023-07-08T00:18:27;22.77;45.97
69084;SHT31;56185;48.526;9.044;2023-07-08T00:20:52;22.72;46.66
69084;SHT31;56185;48.526;9.044;2023-07-08T00:23:17;22.65;46.55
69084;SHT31;56185;48.526;9.044;2023-07-08T00:25:43;22.34;47.83
69084;SHT31;56185;48.526;9.044;2023-07-08T00:28:14;22.35;47.69
69084;SHT31;56185;48.526;9.044;2023-07-08T00:30:40;22.32;48.01
69084;SHT31;56185;48.526;9.044;2023-07-08T00:33:06;22.27;48.86
69084;SHT31;56185;48.526;9.044;2023-07-08T00:38:01;21.93;49.76
69084;SHT31;56185;48.526;9.044;2023-07-08T00:40:28;21.72;51.04
69084;SHT31;56185;48.526;9.044;2023-07-08T00:42:54;21.63;51.90
69084;SHT31;56185;48.526;9.044;2023-07-08T00:48:06;21.57;50.97
69084;SHT31;56185;48.526;9.044;2023-07-08T00:50:32;21.43;51.40
69084;SHT31;56185;48.526;9.044;2023-07-08T00:53:33;21.56;50.66
69084;SHT31;56185;48.526;9.044;2023-07-08T00:56:02;21.33;51.63
69084;SHT31;56185;48.526;9.044;2023-07-08T00:58:34;21.32;50.91
69084;SHT31;56185;48.526;9.044;2023-07-08T01:01:01;21.33;52.10
69084;SHT31;56185;48.526;9.044;2023-07-08T01:03:29;21.14;52.43
69084;SHT31;56185;48.526;9.044;2023-07-08T01:05:56;20.96;52.68
69084;SHT31;56185;48.526;9.044;2023-07-08T01:08:22;20.94;52.15
69084;SHT31;56185;48.526;9.044;2023-07-08T01:10:51;20.83;52.74
69084;SHT31;56185;48.526;9.044;2023-07-08T01:13:18;21.01;51.02
69084;SHT31;56185;48.526;9.044;2023-07-08T01:15:47;20.91;53.26
69084;SHT31;56185;48.526;9.044;2023-07-08T01:18:14;20.83;53.31
69084;SHT31;56185;48.526;9.044;2023-07-08T01:20:40;20.74;53.60
69084;SHT31;56185;48.526;9.044;2023-07-08T01:23:05;20.70;52.81
69084;SHT31;56185;48.526;9.044;2023-07-08T01:25:31;20.84;53.09
69084;SHT31;56185;48.526;9.044;2023-07-08T01:27:57;20.80;53.79
69084;SHT31;56185;48.526;9.044;2023-07-08T01:30:23;20.75;52.63
69084;SHT31;56185;48.526;9.044;2023-07-08T01:32:53;20.61;53.06
69084;SHT31;56185;48.526;9.044;2023-07-08T01:35:20;20.64;52.84
69084;SHT31;56185;48.526;9.044;2023-07-08T01:37:52;20.50;53.41
69084;SHT31;56185;48.526;9.044;2023-07-08T01:42:52;20.56;53.04
69084;SHT31;56185;48.526;9.044;2023-07-08T01:45:21;20.36;54.51
69084;SHT31;56185;48.526;9.044;2023-07-08T01:48:05;20.44;52.92
69084;SHT31;56185;48.526;9.044;2023-07-08T01:50:34;20.33;55.41
69084;SHT31;56185;48.526;9.044;2023-07-08T01:53:02;20.37;55.06
69084;SHT31;56185;48.526;9.044;2023-07-08T01:55:30;20.32;55.67
69084;SHT31;56185;48.526;9.044;2023-07-08T01:57:55;20.40;54.43
69084;SHT31;56185;48.526;9.044;2023-07-08T02:00:21;20.26;54.96
69084;SHT31;56185;48.526;9.044;2023-07-08T02:02:47;20.33;55.05
69084;SHT31;56185;48.526;9.044;2023-07-08T02:05:13;20.25;55.36
69084;SHT31;56185;48.526;9.044;2023-07-08T02:07:38;19.89;56.16
69084;SHT31;56185;48.526;9.044;2023-07-08T02:10:04;20.02;55.56
69084;SHT31;56185;48.526;9.044;2023-07-08T02:12:29;19.98;55.66
69084;SHT31;56185;48.526;9.044;2023-07-08T02:14:55;19.96;55.66
69084;SHT31;56185;48.526;9.044;2023-07-08T02:17:20;19.93;55.54
69084;SHT31;56185;48.526;9.044;2023-07-08T02:19:45;19.74;56.44
69084;SHT31;56185;48.526;9.044;2023-07-08T02:22:10;19.79;56.25
69084;SHT31;56185;48.526;9.044;2023-07-08T02:24:36;19.88;55.70
69084;SHT31;56185;48.526;9.044;2023-07-08T02:27:01;19.90;55.79
69084;SHT31;56185;48.526;9.044;2023-07-08T02:29:26;19.71;56.65
69084;SHT31;56185;48.526;9.044;2023-07-08T02:31:52;19.67;55.16
69084;SHT31;56185;48.526;9.044;2023-07-08T02:34:17;19.69;54.49
69084;SHT31;56185;48.526;9.044;2023-07-08T02:36:42;19.93;54.22
69084;SHT31;56185;48.526;9.044;2023-07-08T02:39:08;19.61;55.78
69084;SHT31;56185;48.526;9.044;2023-07-08T02:41:33;19.20;55.92
69084;SHT31;56185;48.526;9.044;2023-07-08T02:43:58;19.30;55.91
69084;SHT31;56185;48.526;9.044;2023-07-08T02:46:23;19.67;55.25
69084;SHT31;56185;48.526;9.044;2023-07-08T02:48:49;19.50;56.44
69084;SHT31;56185;48.526;9.044;2023-07-08T02:51:14;19.17;57.30
69084;SHT31;56185;48.526;9.044;2023-07-08T02:53:39;19.14;56.39
69084;SHT31;56185;48.526;9.044;2023-07-08T02:56:04;19.27;56.44
69084;SHT31;56185;48.526;9.044;2023-07-08T02:58:30;19.13;56.34
69084;SHT31;56185;48.526;9.044;2023-07-08T03:00:56;19.07;57.02
69084;SHT31;56185;48.526;9.044;2023-07-08T03:03:22;19.18;56.56
69084;SHT31;56185;48.526;9.044;2023-07-08T03:06:13;19.32;55.79
69084;SHT31;56185;48.526;9.044;2023-07-08T03:08:39;19.37;55.93
69084;SHT31;56185;48.526;9.044;2023-07-08T03:11:07;19.27;56.32
69084;SHT31;56185;48.526;9.044;2023-07-08T03:13:33;19.17;56.84
69084;SHT31;56185;48.526;9.044;2023-07-08T03:15:59;19.02;57.17
69084;SHT31;56185;48.526;9.044;2023-07-08T03:18:25;19.04;57.29
69084;SHT31;56185;48.526;9.044;2023-07-08T03:20:50;18.89;57.65
69084;SHT31;56185;48.526;9.044;2023-07-08T03:23:16;18.77;58.36
69084;SHT31;56185;48.526;9.044;2023-07-08T03:25:41;18.82;58.29
69084;SHT31;56185;48.526;9.044;2023-07-08T03:28:07;18.76;58.57
69084;SHT31;56185;48.526;9.044;2023-07-08T03:30:33;18.95;57.97
69084;SHT31;56185;48.526;9.044;2023-07-08T03:32:58;18.83;58.22
69084;SHT31;56185;48.526;9.044;2023-07-08T03:35:24;18.68;58.95
69084;SHT31;56185;48.526;9.044;2023-07-08T03:37:49;18.60;59.15
69084;SHT31;56185;48.526;9.044;2023-07-08T03:40:14;18.63;59.10
69084;SHT31;56185;48.526;9.044;2023-07-08T03:42:39;18.85;57.88
69084;SHT31;56185;48.526;9.044;2023-07-08T03:45:05;18.82;58.53
69084;SHT31;56185;48.526;9.044;2023-07-08T03:47:31;18.92;57.86
69084;SHT31;56185;48.526;9.044;2023-07-08T03:49:56;18.93;57.97
69084;SHT31;56185;48.526;9.044;2023-07-08T03:52:21;18.97;57.80
69084;SHT31;56185;48.526;9.044;2023-07-08T03:54:46;19.14;57.09
69084;SHT31;56185;48.526;9.044;2023-07-08T03:57:12;19.07;57.58
69084;SHT31;56185;48.526;9.044;2023-07-08T03:59:37;19.20;57.73
69084;SHT31;56185;48.526;9.044;2023-07-08T04:02:03;19.46;57.05
69084;SHT31;56185;48.526;9.044;2023-07-08T04:04:28;19.44;57.10
69084;SHT31;56185;48.526;9.044;2023-07-08T04:06:54;19.46;57.84
69084;SHT31;56185;48.526;9.044;2023-07-08T04:09:19;19.23;58.01
69084;SHT31;56185;48.526;9.044;2023-07-08T04:11:44;19.10;59.19
69084;SHT31;56185;48.526;9.044;2023-07-08T04:14:09;19.09;58.70
69084;SHT31;56185;48.526;9.044;2023-07-08T12:36:36;30.89;33.27
69084;SHT31;56185;48.526;9.044;2023-07-08T12:39:01;30.94;32.89
69084;SHT31;56185;48.526;9.044;2023-07-08T12:41:32;31.03;33.41
69084;SHT31;56185;48.526;9.044;2023-07-08T12:43:59;31.08;33.14
69084;SHT31;56185;48.526;9.044;2023-07-08T12:46:25;31.23;33.23
69084;SHT31;56185;48.526;9.044;2023-07-08T12:48:50;31.27;31.88
69084;SHT31;56185;48.526;9.044;2023-07-08T12:51:18;31.35;31.96
69084;SHT31;56185;48.526;9.044;2023-07-08T12:53:44;31.29;31.67
69084;SHT31;56185;48.526;9.044;2023-07-08T12:56:10;31.37;31.37
69084;SHT31;56185;48.526;9.044;2023-07-08T12:58:43;31.42;31.18
69084;SHT31;56185;48.526;9.044;2023-07-08T13:01:17;31.67;31.52
69084;SHT31;56185;48.526;9.044;2023-07-08T13:03:45;31.83;30.13
69084;SHT31;56185;48.526;9.044;2023-07-08T13:06:12;31.83;31.47
69084;SHT31;56185;48.526;9.044;2023-07-08T13:08:38;31.77;31.23
69084;SHT31;56185;48.526;9.044;2023-07-08T13:11:05;31.95;30.34
69084;SHT31;56185;48.526;9.044;2023-07-08T13:13:41;32.04;30.18
69084;SHT31;56185;48.526;9.044;2023-07-08T13:16:09;32.12;30.37
69084;SHT31;56185;48.526;9.044;2023-07-08T13:18:39;32.17;29.70
69084;SHT31;56185;48.526;9.044;2023-07-08T13:21:12;32.21;29.98
69084;SHT31;56185;48.526;9.044;2023-07-08T13:23:40;32.35;30.29
69084;SHT31;56185;48.526;9.044;2023-07-08T13:26:38;32.38;30.90
69084;SHT31;56185;48.526;9.044;2023-07-08T13:29:18;32.39;29.35
69084;SHT31;56185;48.526;9.044;2023-07-08T13:31:52;32.43;30.23
69084;SHT31;56185;48.526;9.044;2023-07-08T13:34:26;32.39;29.09
69084;SHT31;56185;48.526;9.044;2023-07-08T13:36:53;32.49;29.99
69084;SHT31;56185;48.526;9.044;2023-07-08T13:39:31;32.69;29.08
69084;SHT31;56185;48.526;9.044;2023-07-08T13:41:57;32.76;27.88
69084;SHT31;56185;48.526;9.044;2023-07-08T13:44:23;32.75;29.10
69084;SHT31;56185;48.526;9.044;2023-07-08T13:46:57;33.00;29.11
69084;SHT31;56185;48.526;9.044;2023-07-08T13:49:27;33.02;28.95
69084;SHT31;56185;48.526;9.044;2023-07-08T13:52:04;33.10;28.59
69084;SHT31;56185;48.526;9.044;2023-07-08T13:54:38;33.19;28.32
69084;SHT31;56185;48.526;9.044;2023-07-08T13:57:13;33.33;28.45
69084;SHT31;56185;48.526;9.044;2023-07-08T13:59:39;33.23;29.57
69084;SHT31;56185;48.526;9.044;2023-07-08T14:02:23;33.34;28.98
69084;SHT31;56185;48.526;9.044;2023-07-08T14:04:50;33.57;30.61
69084;SHT31;56185;48.526;9.044;2023-07-08T14:07:18;33.41;29.67
69084;SHT31;56185;48.526;9.044;2023-07-08T14:09:44;33.13;29.50
69084;SHT31;56185;48.526;9.044;2023-07-08T14:12:09;32.96;29.96
69084;SHT31;56185;48.526;9.044;2023-07-08T14:14:34;32.80;29.54
69084;SHT31;56185;48.526;9.044;2023-07-08T14:17:00;32.66;30.04
69084;SHT31;56185;48.526;9.044;2023-07-08T14:19:31;32.46;30.10
69084;SHT31;56185;48.526;9.044;2023-07-08T14:24:38;32.29;30.40
69084;SHT31;56185;48.526;9.044;2023-07-08T14:27:04;32.52;29.71
69084;SHT31;56185;48.526;9.044;2023-07-08T14:29:29;32.79;29.75
69084;SHT31;56185;48.526;9.044;2023-07-08T14:31:55;33.03;28.92
69084;SHT31;56185;48.526;9.044;2023-07-08T14:34:25;33.17;29.94
69084;SHT31;56185;48.526;9.044;2023-07-08T14:36:51;33.37;28.94
69084;SHT31;56185;48.526;9.044;2023-07-08T14:39:17;33.50;29.27
69084;SHT31;56185;48.526;9.044;2023-07-08T14:41:44;33.61;29.34
69084;SHT31;56185;48.526;9.044;2023-07-08T14:44:24;33.72;28.56
69084;SHT31;56185;48.526;9.044;2023-07-08T14:46:50;33.85;27.97
69084;SHT31;56185;48.526;9.044;2023-07-08T14:49:18;33.94;27.62
69084;SHT31;56185;48.526;9.044;2023-07-08T14:51:44;33.98;28.19
69084;SHT31;56185;48.526;9.044;2023-07-08T14:54:09;33.97;28.53
69084;SHT31;56185;48.526;9.044;2023-07-08T14:56:35;34.06;28.49
69084;SHT31;56185;48.526;9.044;2023-07-08T14:59:01;34.15;27.86
69084;SHT31;56185;48.526;9.044;2023-07-08T15:01:26;34.13;27.10
69084;SHT31;56185;48.526;9.044;2023-07-08T15:03:51;34.10;27.08
69084;SHT31;56185;48.526;9.044;2023-07-08T15:06:17;33.88;27.33
69084;SHT31;56185;48.526;9.044;2023-07-08T15:08:42;34.01;28.20
69084;SHT31;56185;48.526;9.044;2023-07-08T15:11:11;34.02;27.53
69084;SHT31;56185;48.526;9.044;2023-07-08T15:13:43;33.95;26.67
69084;SHT31;56185;48.526;9.044;2023-07-08T15:16:13;33.82;27.58
69084;SHT31;56185;48.526;9.044;2023-07-08T15:18:42;33.85;28.43
69084;SHT31;56185;48.526;9.044;2023-07-08T15:21:12;33.95;27.83
69084;SHT31;56185;48.526;9.044;2023-07-08T15:23:38;34.04;27.87
69084;SHT31;56185;48.526;9.044;2023-07-08T15:26:03;34.06;27.37
69084;SHT31;56185;48.526;9.044;2023-07-08T15:28:49;34.09;27.99
69084;SHT31;56185;48.526;9.044;2023-07-08T15:31:19;34.18;27.89
69084;SHT31;56185;48.526;9.044;2023-07-08T15:33:45;34.22;26.86
69084;SHT31;56185;48.526;9.044;2023-07-08T15:36:11;34.22;27.47
69084;SHT31;56185;48.526;9.044;2023-07-08T15:38:37;34.01;27.42
69084;SHT31;56185;48.526;9.044;2023-07-08T15:41:02;33.99;26.85
69084;SHT31;56185;48.526;9.044;2023-07-08T15:43:28;33.88;26.87
69084;SHT31;56185;48.526;9.044;2023-07-08T15:45:53;33.87;27.84
69084;SHT31;56185;48.526;9.044;2023-07-08T15:48:18;33.88;27.78
69084;SHT31;56185;48.526;9.044;2023-07-08T15:50:44;33.85;28.03
69084;SHT31;56185;48.526;9.044;2023-07-08T15:53:10;33.82;27.76
69084;SHT31;56185;48.526;9.044;2023-07-08T15:55:39;33.88;28.25
69084;SHT31;56185;48.526;9.044;2023-07-08T15:58:10;33.91;27.90
69084;SHT31;56185;48.526;9.044;2023-07-08T16:00:38;33.85;27.70
69084;SHT31;56185;48.526;9.044;2023-07-08T16:03:21;33.78;27.92
69084;SHT31;56185;48.526;9.044;2023-07-08T16:05:47;33.81;27.77
69084;SHT31;56185;48.526;9.044;2023-07-08T16:08:12;33.81;27.76
69084;SHT31;56185;48.526;9.044;2023-07-08T16:10:37;33.75;27.45
69084;SHT31;56185;48.526;9.044;2023-07-08T16:13:03;33.78;28.23
69084;SHT31;56185;48.526;9.044;2023-07-08T16:15:32;33.72;28.27
69084;SHT31;56185;48.526;9.044;2023-07-08T16:17:58;33.72;28.16
69084;SHT31;56185;48.526;9.044;2023-07-08T16:20:25;33.69;27.34
69084;SHT31;56185;48.526;9.044;2023-07-08T16:22:51;33.68;27.72
69084;SHT31;56185;48.526;9.044;2023-07-08T16:25:19;33.67;28.12
69084;SHT31;56185;48.526;9.044;2023-07-08T16:27:47;33.60;27.73
69084;SHT31;56185;48.526;9.044;2023-07-08T16:30:15;33.58;28.77
69084;SHT31;56185;48.526;9.044;2023-07-08T16:32:41;33.55;27.95
69084;SHT31;56185;48.526;9.044;2023-07-08T16:35:09;33.46;27.90
69084;SHT31;56185;48.526;9.044;2023-07-08T16:37:35;33.37;28.24
69084;SHT31;56185;48.526;9.044;2023-07-08T16:40:00;33.35;29.05
69084;SHT31;56185;48.526;9.044;2023-07-08T16:42:25;33.44;28.91
69084;SHT31;56185;48.526;9.044;2023-07-08T16:44:51;33.46;28.37
69084;SHT31;56185;48.526;9.044;2023-07-08T16:47:16;33.48;28.45
69084;SHT31;56185;48.526;9.044;2023-07-08T16:49:42;33.46;28.31
69084;SHT31;56185;48.526;9.044;2023-07-08T16:52:13;33.41;28.54
69084;SHT31;56185;48.526;9.044;2023-07-08T16:54:38;33.41;28.75
69084;SHT31;56185;48.526;9.044;2023-07-08T16:57:04;33.40;28.61
69084;SHT31;56185;48.526;9.044;2023-07-08T16:59:29;33.35;28.47
69084;SHT31;56185;48.526;9.044;2023-07-08T17:01:54;33.33;28.95
69084;SHT31;56185;48.526;9.044;2023-07-08T17:04:20;33.30;28.45
69084;SHT31;56185;48.526;9.044;2023-07-08T17:06:45;33.21;29.97
69084;SHT31;56185;48.526;9.044;2023-07-08T17:09:10;33.19;30.03
69084;SHT31;56185;48.526;9.044;2023-07-08T17:11:36;33.10;29.68
69084;SHT31;56185;48.526;9.044;2023-07-08T17:14:01;33.13;29.22
69084;SHT31;56185;48.526;9.044;2023-07-08T17:16:32;33.09;29.69
69084;SHT31;56185;48.526;9.044;2023-07-08T17:18:58;33.10;29.75
69084;SHT31;56185;48.526;9.044;2023-07-08T17:21:23;33.13;29.53
69084;SHT31;56185;48.526;9.044;2023-07-08T17:23:48;32.95;29.11
69084;SHT31;56185;48.526;9.044;2023-07-08T17:26:14;32.83;29.61
69084;SHT31;56185;48.526;9.044;2023-07-08T17:28:39;32.76;31.26
69084;SHT31;56185;48.526;9.044;2023-07-08T17:31:05;32.71;30.53
69084;SHT31;56185;48.526;9.044;2023-07-08T17:33:33;32.56;31.26
69084;SHT31;56185;48.526;9.044;2023-07-08T17:35:59;32.48;31.39
69084;SHT31;56185;48.526;9.044;2023-07-08T17:38:56;32.28;31.45
69084;SHT31;56185;48.526;9.044;2023-07-08T17:41:22;32.27;31.31
69084;SHT31;56185;48.526;9.044;2023-07-08T17:43:47;32.11;32.37
69084;SHT31;56185;48.526;9.044;2023-07-08T17:46:18;31.98;32.99
69084;SHT31;56185;48.526;9.044;2023-07-08T17:48:45;31.76;33.02
69084;SHT31;56185;48.526;9.044;2023-07-08T17:51:10;31.63;33.81
69084;SHT31;56185;48.526;9.044;2023-07-08T17:53:36;31.56;33.21
69084;SHT31;56185;48.526;9.044;2023-07-08T17:56:01;31.57;33.32
69084;SHT31;56185;48.526;9.044;2023-07-08T17:58:29;31.76;33.32
69084;SHT31;56185;48.526;9.044;2023-07-08T18:00:56;31.77;33.64
69084;SHT31;56185;48.526;9.044;2023-07-08T18:03:22;31.83;34.16
69084;SHT31;56185;48.526;9.044;2023-07-08T18:05:47;31.73;33.79
69084;SHT31;56185;48.526;9.044;2023-07-08T18:08:12;31.63;34.44
69084;SHT31;56185;48.526;9.044;2023-07-08T18:10:38;31.69;34.25
69084;SHT31;56185;48.526;9.044;2023-07-08T18:13:11;31.64;34.46
69084;SHT31;56185;48.526;9.044;2023-07-08T18:15:39;31.62;34.38
69084;SHT31;56185;48.526;9.044;2023-07-08T18:18:05;31.36;35.23
69084;SHT31;56185;48.526;9.044;2023-07-08T18:20:36;31.27;35.40
69084;SHT31;56185;48.526;9.044;2023-07-08T18:23:02;31.19;35.88
69084;SHT31;56185;48.526;9.044;2023-07-08T18:25:28;31.08;37.03
69084;SHT31;56185;48.526;9.044;2023-07-08T18:27:53;30.98;37.05
69084;SHT31;56185;48.526;9.044;2023-07-08T18:30:20;30.79;38.24
69084;SHT31;56185;48.526;9.044;2023-07-08T18:32:47;30.57;38.29
69084;SHT31;56185;48.526;9.044;2023-07-08T18:35:24;30.34;39.14
69084;SHT31;56185;48.526;9.044;2023-07-08T18:37:51;30.17;39.35
69084;SHT31;56185;48.526;9.044;2023-07-08T18:42:56;29.99;40.22
69084;SHT31;56185;48.526;9.044;2023-07-08T18:45:22;30.12;38.77
69084;SHT31;56185;48.526;9.044;2023-07-08T18:47:47;29.93;39.79
69084;SHT31;56185;48.526;9.044;2023-07-08T18:50:13;29.72;40.46
69084;SHT31;56185;48.526;9.044;2023-07-08T18:52:39;29.62;41.11
69084;SHT31;56185;48.526;9.044;2023-07-08T18:55:05;29.51;41.08
69084;SHT31;56185;48.526;9.044;2023-07-08T18:57:30;29.41;41.71
69084;SHT31;56185;48.526;9.044;2023-07-08T18:59:55;29.29;41.81
69084;SHT31;56185;48.526;9.044;2023-07-08T19:02:56;29.27;41.75
69084;SHT31;56185;48.526;9.044;2023-07-08T19:05:22;29.44;41.16
69084;SHT31;56185;48.526;9.044;2023-07-08T19:07:48;29.58;40.68
69084;SHT31;56185;48.526;9.044;2023-07-08T19:10:15;29.45;41.38
69084;SHT31;56185;48.526;9.044;2023-07-08T19:12:43;29.39;41.56
69084;SHT31;56185;48.526;9.044;2023-07-08T19:17:51;29.24;42.37
69084;SHT31;56185;48.526;9.044;2023-07-08T19:20:18;29.11;42.60
69084;SHT31;56185;48.526;9.044;2023-07-08T19:22:45;29.08;42.73
69084;SHT31;56185;48.526;9.044;2023-07-08T19:25:23;28.91;42.37
69084;SHT31;56185;48.526;9.044;2023-07-08T19:27:49;28.84;42.47
69084;SHT31;56185;48.526;9.044;2023-07-08T19:30:15;29.07;41.77
69084;SHT31;56185;48.526;9.044;2023-07-08T19:32:53;29.32;40.80
69084;SHT31;56185;48.526;9.044;2023-07-08T19:35:23;29.44;40.62
69084;SHT31;56185;48.526;9.044;2023-07-08T19:37:50;29.41;40.59
69084;SHT31;56185;48.526;9.044;2023-07-08T19:40:18;29.35;40.82
69084;SHT31;56185;48.526;9.044;2023-07-08T19:42:46;29.24;41.10
69084;SHT31;56185;48.526;9.044;2023-07-08T19:45:17;29.21;41.61
69084;SHT31;56185;48.526;9.044;2023-07-08T19:47:42;29.11;41.60
69084;SHT31;56185;48.526;9.044;2023-07-08T19:50:09;29.03;42.10
69084;SHT31;56185;48.526;9.044;2023-07-08T19:52:34;28.94;42.29
69084;SHT31;56185;48.526;9.044;2023-07-08T19:54:59;28.99;41.89
69084;SHT31;56185;48.526;9.044;2023-07-08T19:57:25;28.99;42.06
69084;SHT31;56185;48.526;9.044;2023-07-08T19:59:50;29.15;41.56
69084;SHT31;56185;48.526;9.044;2023-07-08T20:02:17;28.86;42.54
69084;SHT31;56185;48.526;9.044;2023-07-08T20:04:42;28.79;42.66
69084;SHT31;56185;48.526;9.044;2023-07-08T20:07:11;28.70;42.83
69084;SHT31;56185;48.526;9.044;2023-07-08T20:09:37;28.73;42.82
69084;SHT31;56185;48.526;9.044;2023-07-08T20:12:02;28.63;43.43
69084;SHT31;56185;48.526;9.044;2023-07-08T20:14:28;28.64;43.12
69084;SHT31;56185;48.526;9.044;2023-07-08T20:16:53;28.43;43.94
69084;SHT31;56185;48.526;9.044;2023-07-08T20:19:20;28.43;43.76
69084;SHT31;56185;48.526;9.044;2023-07-08T20:21:46;28.38;43.97
69084;SHT31;56185;48.526;9.044;2023-07-08T20:24:11;28.40;44.37
69084;SHT31;56185;48.526;9.044;2023-07-08T20:26:38;28.18;44.22
69084;SHT31;56185;48.526;9.044;2023-07-08T20:29:05;27.91;45.06
69084;SHT31;56185;48.526;9.044;2023-07-08T20:31:32;27.84;45.60
69084;SHT31;56185;48.526;9.044;2023-07-08T20:33:57;27.61;46.12
69084;SHT31;56185;48.526;9.044;2023-07-08T20:36:23;27.49;46.54
69084;SHT31;56185;48.526;9.044;2023-07-08T20:38:50;27.54;45.93
69084;SHT31;56185;48.526;9.044;2023-07-08T20:41:15;27.55;46.25
69084;SHT31;56185;48.526;9.044;2023-07-08T20:43:40;27.39;46.79
69084;SHT31;56185;48.526;9.044;2023-07-08T20:48:40;27.23;46.89
69084;SHT31;56185;48.526;9.044;2023-07-08T20:51:07;27.06;47.59
69084;SHT31;56185;48.526;9.044;2023-07-08T20:53:32;26.92;48.12
69084;SHT31;56185;48.526;9.044;2023-07-08T20:55:58;26.84;47.96
69084;SHT31;56185;48.526;9.044;2023-07-08T21:07:32;26.88;49.94
69084;SHT31;56185;48.526;9.044;2023-07-08T21:09:57;26.78;50.61
69084;SHT31;56185;48.526;9.044;2023-07-08T21:12:23;26.92;49.27
69084;SHT31;56185;48.526;9.044;2023-07-08T21:14:48;26.49;50.41
69084;SHT31;56185;48.526;9.044;2023-07-08T21:17:16;26.33;50.94
69084;SHT31;56185;48.526;9.044;2023-07-08T21:19:45;26.31;51.08
69084;SHT31;56185;48.526;9.044;2023-07-08T21:22:11;26.04;51.31
69084;SHT31;56185;48.526;9.044;2023-07-08T21:24:38;26.01;52.80
69084;SHT31;56185;48.526;9.044;2023-07-08T21:27:04;25.96;53.09
69084;SHT31;56185;48.526;9.044;2023-07-08T21:29:30;25.89;52.96
69084;SHT31;56185;48.526;9.044;2023-07-08T21:31:58;25.80;52.46
69084;SHT31;56185;48.526;9.044;2023-07-08T21:34:29;25.66;53.04
69084;SHT31;56185;48.526;9.044;2023-07-08T21:37:00;25.61;53.29
69084;SHT31;56185;48.526;9.044;2023-07-08T21:39:38;25.45;53.61
69084;SHT31;56185;48.526;9.044;2023-07-08T21:42:05;25.27;54.22
69084;SHT31;56185;48.526;9.044;2023-07-08T21:44:34;25.31;53.76
69084;SHT31;56185;48.526;9.044;2023-07-08T21:46:59;25.05;53.78
69084;SHT31;56185;48.526;9.044;2023-07-08T21:49:24;25.10;52.97
69084;SHT31;56185;48.526;9.044;2023-07-08T21:51:49;25.07;52.73
69084;SHT31;56185;48.526;9.044;2023-07-08T21:54:15;25.18;53.03
69084;SHT31;56185;48.526;9.044;2023-07-08T21:56:40;25.07;52.79
69084;SHT31;56185;48.526;9.044;2023-07-08T21:59:14;25.04;52.76
69084;SHT31;56185;48.526;9.044;2023-07-08T22:01:41;24.91;53.40
69084;SHT31;56185;48.526;9.044;2023-07-08T22:04:10;24.67;54.64
69084;SHT31;56185;48.526;9.044;2023-07-08T22:06:36;24.64;54.47
69084;SHT31;56185;48.526;9.044;2023-07-08T22:09:02;24.49;54.25
69084;SHT31;56185;48.526;9.044;2023-07-08T22:11:32;24.49;54.56
69084;SHT31;56185;48.526;9.044;2023-07-08T22:13:58;24.40;55.04
69084;SHT31;56185;48.526;9.044;2023-07-08T22:16:25;24.32;54.71
69084;SHT31;56185;48.526;9.044;2023-07-08T22:18:51;24.40;54.62
69084;SHT31;56185;48.526;9.044;2023-07-08T22:21:20;24.61;54.85
69084;SHT31;56185;48.526;9.044;2023-07-08T22:23:46;24.53;56.00
69084;SHT31;56185;48.526;9.044;2023-07-08T22:26:12;24.39;56.13
69084;SHT31;56185;48.526;9.044;2023-07-08T22:28:38;24.29;56.73
69084;SHT31;56185;48.526;9.044;2023-07-08T22:31:05;24.16;57.31
69084;SHT31;56185;48.526;9.044;2023-07-08T22:33:30;24.19;57.46
69084;SHT31;56185;48.526;9.044;2023-07-08T22:35:56;24.26;56.93
69084;SHT31;56185;48.526;9.044;2023-07-08T22:38:21;24.43;56.35
69084;SHT31;56185;48.526;9.044;2023-07-08T22:40:47;24.19;56.50
69084;SHT31;56185;48.526;9.044;2023-07-08T22:43:26;24.06;56.81
69084;SHT31;56185;48.526;9.044;2023-07-08T22:45:52;23.77;57.72
69084;SHT31;56185;48.526;9.044;2023-07-08T22:48:17;23.68;58.01
69084;SHT31;56185;48.526;9.044;2023-07-08T22:50:42;23.54;58.60
69084;SHT31;56185;48.526;9.044;2023-07-08T22:53:14;23.50;58.48
69084;SHT31;56185;48.526;9.044;2023-07-08T22:55:40;23.34;58.80
69084;SHT31;56185;48.526;9.044;2023-07-08T22:58:22;23.20;58.38
69084;SHT31;56185;48.526;9.044;2023-07-08T23:00:48;23.21;58.86
69084;SHT31;56185;48.526;9.044;2023-07-08T23:03:14;23.37;57.76
69084;SHT31;56185;48.526;9.044;2023-07-08T23:05:39;23.43;57.70
69084;SHT31;56185;48.526;9.044;2023-07-08T23:08:11;23.51;57.97
69084;SHT31;56185;48.526;9.044;2023-07-08T23:10:37;23.40;58.02
69084;SHT31;56185;48.526;9.044;2023-07-08T23:13:02;23.20;58.50
69084;SHT31;56185;48.526;9.044;2023-07-08T23:15:28;23.34;58.25
69084;SHT31;56185;48.526;9.044;2023-07-08T23:17:53;23.33;58.72
69084;SHT31;56185;48.526;9.044;2023-07-08T23:20:20;23.27;58.91
69084;SHT31;56185;48.526;9.044;2023-07-08T23:22:45;23.21;59.13
69084;SHT31;56185;48.526;9.044;2023-07-08T23:25:12;23.03;59.06
69084;SHT31;56185;48.526;9.044;2023-07-08T23:27:38;23.00;59.68
69084;SHT31;56185;48.526;9.044;2023-07-08T23:30:05;22.99;59.69
69084;SHT31;56185;48.526;9.044;2023-07-08T23:32:31;23.06;59.52
69084;SHT31;56185;48.526;9.044;2023-07-08T23:34:56;23.04;59.48
69084;SHT31;56185;48.526;9.044;2023-07-08T23:37:24;23.04;59.31
69084;SHT31;56185;48.526;9.044;2023-07-08T23:39:51;23.02;59.17
69084;SHT31;56185;48.526;9.044;2023-07-08T23:42:16;23.10;59.74
69084;SHT31;56185;48.526;9.044;2023-07-08T23:44:41;23.07;60.55
69084;SHT31;56185;48.526;9.044;2023-07-08T23:47:14;23.06;59.98
69084;SHT31;56185;48.526;9.044;2023-07-08T23:49:42;23.17;59.83
69084;SHT31;56185;48.526;9.044;2023-07-08T23:52:11;23.02;60.29
69084;SHT31;56185;48.526;9.044;2023-07-08T23:54:37;23.12;59.80
69084;SHT31;56185;48.526;9.044;2023-07-08T23:57:05;23.20;59.46
69084;SHT31;56185;48.526;9.044;2023-07-08T23:59:34;23.19;59.13
